首页
METAR-TAF:

METAR-TAF

机场 :

斯德哥爾摩-阿蘭達機場

斯德哥爾摩-阿蘭達, 瑞典

纬度: 59-39N, 经度: 017-57E, 海拔: 38米

当前天气观测

该预报发布于18分钟前的22:50 UTC
风速3节,风向多变
温度 -4°C
湿度 93%
气压 1012 hPa
能见度10公里或以上
少量云层高于300英尺
阴天层高于3500英尺

METAR: ESSA 232250Z VRB03KT 9999 FEW003 OVC035 M04/M05 Q1012 R01L/71//63 R08/71//65 R01R/72//72 TEMPO 2000 BKN005

时间: 00:08 (23:08 UTC)

预报

该预报发布于44分钟前的22:24 UTC
预报有效从23日的 22点(UTC)到 24日的 18点(UTC)
风速2节,风向多变
能見度: 5000
少量云层高于200英尺
多云层高于3500英尺
几率 40%
从 23日的 22点(UTC)到 24日的 06点(UTC)
能見度: 0200
层高于200英尺
冻雾

TAF: ESSA 232224Z 2322/2418 VRB02KT 5000 FEW002 BKN035 PROB40 2322/2406 0200 FZFG VV002

超过4000个机场的气象观测和天气预报(METAR&TAF报告)。

可查询的气象台以黄色和红色小点在地图上表示。

将鼠标移到小点上方,可查看气象台名称。

然后点击查看天气观测和预报。

如需切换地图:点击带黑十字的绿色按钮放大地图;点击带横线的绿色按钮缩小地图;或者点击绿色箭头查看邻近地区的地图。


METAR-TAF: